sensor_id;sensor_type;location;lat;lon;timestamp;P1;durP1;ratioP1;P2;durP2;ratioP2
58992;SDS011;44782;0.000;0.000;2023-08-24T00:01:03;2.95;;;2.72;;
58992;SDS011;44782;0.000;0.000;2023-08-24T00:03:18;3.20;;;3.00;;
58992;SDS011;44782;0.000;0.000;2023-08-24T00:05:36;3.03;;;2.80;;
58992;SDS011;44782;0.000;0.000;2023-08-24T00:07:52;3.03;;;2.83;;
58992;SDS011;44782;0.000;0.000;2023-08-24T00:10:08;3.13;;;2.92;;
58992;SDS011;44782;0.000;0.000;2023-08-24T00:12:23;2.83;;;2.63;;
58992;SDS011;44782;0.000;0.000;2023-08-24T00:14:39;2.97;;;2.70;;
58992;SDS011;44782;0.000;0.000;2023-08-24T00:16:55;3.05;;;2.80;;
58992;SDS011;44782;0.000;0.000;2023-08-24T00:19:10;3.47;;;3.10;;
58992;SDS011;44782;0.000;0.000;2023-08-24T00:21:26;3.10;;;2.80;;
58992;SDS011;44782;0.000;0.000;2023-08-24T00:23:43;3.03;;;2.80;;
58992;SDS011;44782;0.000;0.000;2023-08-24T00:25:59;3.20;;;2.90;;
58992;SDS011;44782;0.000;0.000;2023-08-24T00:28:15;2.80;;;2.60;;
58992;SDS011;44782;0.000;0.000;2023-08-24T00:30:30;4.20;;;3.00;;
58992;SDS011;44782;0.000;0.000;2023-08-24T00:32:46;2.95;;;2.75;;
58992;SDS011;44782;0.000;0.000;2023-08-24T00:35:02;3.05;;;2.80;;
58992;SDS011;44782;0.000;0.000;2023-08-24T00:37:19;3.08;;;2.78;;
58992;SDS011;44782;0.000;0.000;2023-08-24T00:39:35;2.80;;;2.60;;
58992;SDS011;44782;0.000;0.000;2023-08-24T00:44:06;2.88;;;2.67;;
58992;SDS011;44782;0.000;0.000;2023-08-24T00:46:26;3.75;;;2.70;;
58992;SDS011;44782;0.000;0.000;2023-08-24T00:48:43;3.00;;;2.80;;
58992;SDS011;44782;0.000;0.000;2023-08-24T00:50:59;2.78;;;2.50;;
58992;SDS011;44782;0.000;0.000;2023-08-24T00:53:15;3.10;;;2.80;;
58992;SDS011;44782;0.000;0.000;2023-08-24T00:55:32;2.70;;;2.50;;
58992;SDS011;44782;0.000;0.000;2023-08-24T00:57:48;2.75;;;2.55;;
58992;SDS011;44782;0.000;0.000;2023-08-24T01:00:06;2.88;;;2.67;;
58992;SDS011;44782;0.000;0.000;2023-08-24T01:02:25;2.78;;;2.58;;
58992;SDS011;44782;0.000;0.000;2023-08-24T01:04:41;3.20;;;2.90;;
58992;SDS011;44782;0.000;0.000;2023-08-24T01:06:57;3.10;;;2.80;;
58992;SDS011;44782;0.000;0.000;2023-08-24T01:09:13;3.95;;;2.63;;
58992;SDS011;44782;0.000;0.000;2023-08-24T01:14:30;2.83;;;2.63;;
58992;SDS011;44782;0.000;0.000;2023-08-24T01:16:50;3.00;;;2.72;;
58992;SDS011;44782;0.000;0.000;2023-08-24T01:19:10;3.03;;;2.70;;
58992;SDS011;44782;0.000;0.000;2023-08-24T01:21:42;2.60;;;2.40;;
58992;SDS011;44782;0.000;0.000;2023-08-24T01:26:50;2.80;;;2.60;;
58992;SDS011;44782;0.000;0.000;2023-08-24T01:29:07;2.83;;;2.50;;
58992;SDS011;44782;0.000;0.000;2023-08-24T01:31:24;2.85;;;2.65;;
58992;SDS011;44782;0.000;0.000;2023-08-24T01:33:40;4.50;;;3.53;;
58992;SDS011;44782;0.000;0.000;2023-08-24T01:35:55;2.70;;;2.50;;
58992;SDS011;44782;0.000;0.000;2023-08-24T01:38:11;3.20;;;2.90;;
58992;SDS011;44782;0.000;0.000;2023-08-24T01:43:14;3.30;;;2.70;;
58992;SDS011;44782;0.000;0.000;2023-08-24T01:45:31;3.15;;;2.78;;
58992;SDS011;44782;0.000;0.000;2023-08-24T01:47:47;3.50;;;2.90;;
58992;SDS011;44782;0.000;0.000;2023-08-24T01:50:04;2.90;;;2.70;;
58992;SDS011;44782;0.000;0.000;2023-08-24T01:52:21;3.05;;;2.80;;
58992;SDS011;44782;0.000;0.000;2023-08-24T01:54:37;2.90;;;2.70;;
58992;SDS011;44782;0.000;0.000;2023-08-24T01:56:54;4.43;;;2.78;;
58992;SDS011;44782;0.000;0.000;2023-08-24T01:59:09;2.83;;;2.63;;
58992;SDS011;44782;0.000;0.000;2023-08-24T02:01:25;4.70;;;2.88;;
58992;SDS011;44782;0.000;0.000;2023-08-24T02:03:40;4.43;;;2.50;;
58992;SDS011;44782;0.000;0.000;2023-08-24T02:05:56;2.97;;;2.78;;
58992;SDS011;44782;0.000;0.000;2023-08-24T02:10:27;2.97;;;2.78;;
58992;SDS011;44782;0.000;0.000;2023-08-24T02:12:43;4.35;;;3.05;;
58992;SDS011;44782;0.000;0.000;2023-08-24T02:14:59;3.00;;;2.80;;
58992;SDS011;44782;0.000;0.000;2023-08-24T02:17:14;3.05;;;2.65;;
58992;SDS011;44782;0.000;0.000;2023-08-24T02:19:30;3.13;;;2.70;;
58992;SDS011;44782;0.000;0.000;2023-08-24T02:21:46;3.00;;;2.70;;
58992;SDS011;44782;0.000;0.000;2023-08-24T02:24:02;3.30;;;2.70;;
58992;SDS011;44782;0.000;0.000;2023-08-24T02:26:19;2.83;;;2.63;;
58992;SDS011;44782;0.000;0.000;2023-08-24T02:28:36;2.60;;;2.40;;
58992;SDS011;44782;0.000;0.000;2023-08-24T02:30:52;3.22;;;2.80;;
58992;SDS011;44782;0.000;0.000;2023-08-24T02:33:09;3.58;;;2.83;;
58992;SDS011;44782;0.000;0.000;2023-08-24T02:35:25;2.88;;;2.67;;
58992;SDS011;44782;0.000;0.000;2023-08-24T02:37:40;2.97;;;2.78;;
58992;SDS011;44782;0.000;0.000;2023-08-24T02:39:56;2.85;;;2.65;;
58992;SDS011;44782;0.000;0.000;2023-08-24T02:42:12;2.95;;;2.50;;
58992;SDS011;44782;0.000;0.000;2023-08-24T02:44:28;2.83;;;2.50;;
58992;SDS011;44782;0.000;0.000;2023-08-24T02:46:44;2.97;;;2.63;;
58992;SDS011;44782;0.000;0.000;2023-08-24T02:49:00;2.78;;;2.55;;
58992;SDS011;44782;0.000;0.000;2023-08-24T02:51:15;3.10;;;2.80;;
58992;SDS011;44782;0.000;0.000;2023-08-24T02:53:31;2.70;;;2.50;;
58992;SDS011;44782;0.000;0.000;2023-08-24T02:55:47;3.15;;;2.55;;
58992;SDS011;44782;0.000;0.000;2023-08-24T02:58:03;2.50;;;2.30;;
58992;SDS011;44782;0.000;0.000;2023-08-24T03:00:19;3.10;;;2.90;;
58992;SDS011;44782;0.000;0.000;2023-08-24T03:02:35;3.20;;;2.90;;
58992;SDS011;44782;0.000;0.000;2023-08-24T03:04:51;2.92;;;2.70;;
58992;SDS011;44782;0.000;0.000;2023-08-24T03:07:07;2.80;;;2.60;;
58992;SDS011;44782;0.000;0.000;2023-08-24T03:09:25;2.67;;;2.47;;
58992;SDS011;44782;0.000;0.000;2023-08-24T03:11:41;2.72;;;2.53;;
58992;SDS011;44782;0.000;0.000;2023-08-24T03:13:57;2.90;;;2.70;;
58992;SDS011;44782;0.000;0.000;2023-08-24T03:16:12;2.83;;;2.55;;
58992;SDS011;44782;0.000;0.000;2023-08-24T03:18:28;2.90;;;2.60;;
58992;SDS011;44782;0.000;0.000;2023-08-24T03:20:44;2.67;;;2.47;;
58992;SDS011;44782;0.000;0.000;2023-08-24T03:23:01;4.43;;;2.65;;
58992;SDS011;44782;0.000;0.000;2023-08-24T03:25:18;3.15;;;2.90;;
58992;SDS011;44782;0.000;0.000;2023-08-24T03:27:34;3.35;;;2.47;;
58992;SDS011;44782;0.000;0.000;2023-08-24T03:29:51;3.00;;;2.70;;
58992;SDS011;44782;0.000;0.000;2023-08-24T03:32:08;3.00;;;2.67;;
58992;SDS011;44782;0.000;0.000;2023-08-24T03:34:24;2.63;;;2.42;;
58992;SDS011;44782;0.000;0.000;2023-08-24T03:36:39;2.95;;;2.60;;
58992;SDS011;44782;0.000;0.000;2023-08-24T03:38:55;2.80;;;2.60;;
58992;SDS011;44782;0.000;0.000;2023-08-24T03:41:11;2.83;;;2.63;;
58992;SDS011;44782;0.000;0.000;2023-08-24T03:43:26;2.63;;;2.42;;
58992;SDS011;44782;0.000;0.000;2023-08-24T03:45:42;3.13;;;2.90;;
58992;SDS011;44782;0.000;0.000;2023-08-24T03:47:58;2.95;;;2.70;;
58992;SDS011;44782;0.000;0.000;2023-08-24T03:50:14;3.30;;;2.78;;
58992;SDS011;44782;0.000;0.000;2023-08-24T03:52:30;2.85;;;2.55;;
58992;SDS011;44782;0.000;0.000;2023-08-24T03:54:46;3.53;;;3.05;;
58992;SDS011;44782;0.000;0.000;2023-08-24T03:57:02;2.72;;;2.53;;
58992;SDS011;44782;0.000;0.000;2023-08-24T03:59:17;3.30;;;2.58;;
58992;SDS011;44782;0.000;0.000;2023-08-24T04:01:33;3.00;;;2.60;;
58992;SDS011;44782;0.000;0.000;2023-08-24T04:03:49;3.13;;;2.83;;
58992;SDS011;44782;0.000;0.000;2023-08-24T04:06:04;2.72;;;2.53;;
58992;SDS011;44782;0.000;0.000;2023-08-24T04:08:20;2.63;;;2.42;;
58992;SDS011;44782;0.000;0.000;2023-08-24T04:10:37;2.97;;;2.67;;
58992;SDS011;44782;0.000;0.000;2023-08-24T04:12:53;2.78;;;2.50;;
58992;SDS011;44782;0.000;0.000;2023-08-24T04:15:09;3.42;;;2.47;;
58992;SDS011;44782;0.000;0.000;2023-08-24T04:17:25;2.80;;;2.60;;
58992;SDS011;44782;0.000;0.000;2023-08-24T04:19:40;2.60;;;2.40;;
58992;SDS011;44782;0.000;0.000;2023-08-24T04:21:56;2.65;;;2.45;;
58992;SDS011;44782;0.000;0.000;2023-08-24T04:24:12;2.97;;;2.60;;
58992;SDS011;44782;0.000;0.000;2023-08-24T04:26:27;2.80;;;2.60;;
58992;SDS011;44782;0.000;0.000;2023-08-24T04:28:43;2.50;;;2.30;;
58992;SDS011;44782;0.000;0.000;2023-08-24T04:30:59;2.58;;;2.22;;
58992;SDS011;44782;0.000;0.000;2023-08-24T04:33:14;2.80;;;2.40;;
58992;SDS011;44782;0.000;0.000;2023-08-24T04:35:33;2.83;;;2.63;;
58992;SDS011;44782;0.000;0.000;2023-08-24T04:37:50;2.90;;;2.70;;
58992;SDS011;44782;0.000;0.000;2023-08-24T04:40:06;2.72;;;2.33;;
58992;SDS011;44782;0.000;0.000;2023-08-24T04:42:26;2.78;;;2.58;;
58992;SDS011;44782;0.000;0.000;2023-08-24T04:44:41;2.60;;;2.40;;
58992;SDS011;44782;0.000;0.000;2023-08-24T04:46:57;3.13;;;2.42;;
58992;SDS011;44782;0.000;0.000;2023-08-24T04:49:13;2.50;;;2.40;;
58992;SDS011;44782;0.000;0.000;2023-08-24T04:51:29;2.55;;;2.35;;
58992;SDS011;44782;0.000;0.000;2023-08-24T04:53:44;3.17;;;2.45;;
58992;SDS011;44782;0.000;0.000;2023-08-24T04:56:00;2.72;;;2.47;;
58992;SDS011;44782;0.000;0.000;2023-08-24T04:58:16;2.83;;;2.42;;
58992;SDS011;44782;0.000;0.000;2023-08-24T05:00:31;3.22;;;2.60;;
58992;SDS011;44782;0.000;0.000;2023-08-24T05:02:48;2.55;;;2.35;;
58992;SDS011;44782;0.000;0.000;2023-08-24T05:05:04;2.45;;;2.25;;
58992;SDS011;44782;0.000;0.000;2023-08-24T05:07:20;3.55;;;2.63;;
58992;SDS011;44782;0.000;0.000;2023-08-24T05:09:36;2.70;;;2.50;;
58992;SDS011;44782;0.000;0.000;2023-08-24T05:11:51;2.75;;;2.55;;
58992;SDS011;44782;0.000;0.000;2023-08-24T05:14:07;2.80;;;2.50;;
58992;SDS011;44782;0.000;0.000;2023-08-24T05:16:23;2.70;;;2.50;;
58992;SDS011;44782;0.000;0.000;2023-08-24T05:18:39;3.72;;;2.70;;
58992;SDS011;44782;0.000;0.000;2023-08-24T05:20:55;2.80;;;2.50;;
58992;SDS011;44782;0.000;0.000;2023-08-24T05:23:10;3.20;;;2.53;;
58992;SDS011;44782;0.000;0.000;2023-08-24T05:25:26;3.22;;;2.70;;
58992;SDS011;44782;0.000;0.000;2023-08-24T05:27:42;3.08;;;2.78;;
58992;SDS011;44782;0.000;0.000;2023-08-24T05:29:58;2.92;;;2.60;;
58992;SDS011;44782;0.000;0.000;2023-08-24T05:32:14;2.60;;;2.40;;
58992;SDS011;44782;0.000;0.000;2023-08-24T05:34:29;2.88;;;2.53;;
58992;SDS011;44782;0.000;0.000;2023-08-24T05:36:45;2.90;;;2.60;;
58992;SDS011;44782;0.000;0.000;2023-08-24T05:39:01;3.15;;;2.47;;
58992;SDS011;44782;0.000;0.000;2023-08-24T05:41:17;3.47;;;2.72;;
58992;SDS011;44782;0.000;0.000;2023-08-24T05:43:33;3.65;;;2.60;;
58992;SDS011;44782;0.000;0.000;2023-08-24T05:45:48;2.67;;;2.47;;
58992;SDS011;44782;0.000;0.000;2023-08-24T05:48:04;3.65;;;2.70;;
58992;SDS011;44782;0.000;0.000;2023-08-24T05:50:20;2.75;;;2.55;;
58992;SDS011;44782;0.000;0.000;2023-08-24T05:52:36;2.90;;;2.65;;
58992;SDS011;44782;0.000;0.000;2023-08-24T05:54:52;5.68;;;2.50;;
58992;SDS011;44782;0.000;0.000;2023-08-24T05:57:08;4.53;;;2.80;;
58992;SDS011;44782;0.000;0.000;2023-08-24T05:59:24;3.47;;;2.88;;
58992;SDS011;44782;0.000;0.000;2023-08-24T06:01:40;3.38;;;2.83;;
58992;SDS011;44782;0.000;0.000;2023-08-24T06:03:56;4.90;;;3.40;;
58992;SDS011;44782;0.000;0.000;2023-08-24T06:06:12;4.40;;;3.42;;
58992;SDS011;44782;0.000;0.000;2023-08-24T06:08:28;4.13;;;3.50;;
58992;SDS011;44782;0.000;0.000;2023-08-24T06:10:43;4.95;;;3.47;;
58992;SDS011;44782;0.000;0.000;2023-08-24T06:12:59;3.50;;;3.20;;
58992;SDS011;44782;0.000;0.000;2023-08-24T06:15:16;6.72;;;3.70;;
58992;SDS011;44782;0.000;0.000;2023-08-24T06:17:34;6.47;;;3.38;;
58992;SDS011;44782;0.000;0.000;2023-08-24T06:19:50;3.85;;;3.10;;
58992;SDS011;44782;0.000;0.000;2023-08-24T06:22:06;3.78;;;3.03;;
58992;SDS011;44782;0.000;0.000;2023-08-24T06:24:22;3.42;;;3.10;;
58992;SDS011;44782;0.000;0.000;2023-08-24T06:26:38;3.67;;;3.25;;
58992;SDS011;44782;0.000;0.000;2023-08-24T06:28:53;4.28;;;3.40;;
58992;SDS011;44782;0.000;0.000;2023-08-24T06:31:10;3.35;;;3.03;;
58992;SDS011;44782;0.000;0.000;2023-08-24T06:33:33;3.90;;;3.30;;
58992;SDS011;44782;0.000;0.000;2023-08-24T06:35:49;3.65;;;3.03;;
58992;SDS011;44782;0.000;0.000;2023-08-24T06:38:05;3.33;;;3.03;;
58992;SDS011;44782;0.000;0.000;2023-08-24T06:40:20;4.20;;;2.80;;
58992;SDS011;44782;0.000;0.000;2023-08-24T06:42:36;3.08;;;2.78;;
58992;SDS011;44782;0.000;0.000;2023-08-24T06:44:52;3.50;;;2.92;;
58992;SDS011;44782;0.000;0.000;2023-08-24T06:47:08;3.28;;;2.97;;
58992;SDS011;44782;0.000;0.000;2023-08-24T06:49:23;3.30;;;3.00;;
58992;SDS011;44782;0.000;0.000;2023-08-24T06:51:39;3.30;;;3.00;;
58992;SDS011;44782;0.000;0.000;2023-08-24T06:53:55;3.45;;;3.03;;
58992;SDS011;44782;0.000;0.000;2023-08-24T06:56:10;3.30;;;3.00;;
58992;SDS011;44782;0.000;0.000;2023-08-24T06:58:26;3.10;;;2.80;;
58992;SDS011;44782;0.000;0.000;2023-08-24T07:00:42;3.47;;;3.17;;
58992;SDS011;44782;0.000;0.000;2023-08-24T07:02:58;3.97;;;3.22;;
58992;SDS011;44782;0.000;0.000;2023-08-24T07:05:14;3.30;;;3.00;;
58992;SDS011;44782;0.000;0.000;2023-08-24T07:07:34;3.13;;;2.80;;
58992;SDS011;44782;0.000;0.000;2023-08-24T07:09:50;4.55;;;2.88;;
58992;SDS011;44782;0.000;0.000;2023-08-24T07:12:06;3.42;;;3.10;;
58992;SDS011;44782;0.000;0.000;2023-08-24T07:14:22;3.25;;;2.95;;
58992;SDS011;44782;0.000;0.000;2023-08-24T07:16:37;3.33;;;2.85;;
58992;SDS011;44782;0.000;0.000;2023-08-24T07:18:53;2.97;;;2.60;;
58992;SDS011;44782;0.000;0.000;2023-08-24T07:21:09;3.13;;;2.90;;
58992;SDS011;44782;0.000;0.000;2023-08-24T07:23:25;2.85;;;2.65;;
58992;SDS011;44782;0.000;0.000;2023-08-24T07:25:41;3.40;;;3.10;;
58992;SDS011;44782;0.000;0.000;2023-08-24T07:27:56;4.13;;;2.97;;
58992;SDS011;44782;0.000;0.000;2023-08-24T07:30:13;2.83;;;2.63;;
58992;SDS011;44782;0.000;0.000;2023-08-24T07:32:29;3.20;;;2.90;;
58992;SDS011;44782;0.000;0.000;2023-08-24T07:34:45;2.92;;;2.72;;
58992;SDS011;44782;0.000;0.000;2023-08-24T07:37:01;3.20;;;2.90;;
58992;SDS011;44782;0.000;0.000;2023-08-24T07:39:17;3.33;;;3.03;;
58992;SDS011;44782;0.000;0.000;2023-08-24T07:41:32;3.85;;;3.45;;
58992;SDS011;44782;0.000;0.000;2023-08-24T07:43:48;3.20;;;3.00;;
58992;SDS011;44782;0.000;0.000;2023-08-24T07:46:04;3.45;;;2.97;;
58992;SDS011;44782;0.000;0.000;2023-08-24T07:48:20;3.00;;;2.78;;
58992;SDS011;44782;0.000;0.000;2023-08-24T07:50:35;3.35;;;3.03;;
58992;SDS011;44782;0.000;0.000;2023-08-24T07:52:51;2.95;;;2.65;;
58992;SDS011;44782;0.000;0.000;2023-08-24T07:55:07;4.47;;;3.20;;
58992;SDS011;44782;0.000;0.000;2023-08-24T07:57:24;3.13;;;2.92;;
58992;SDS011;44782;0.000;0.000;2023-08-24T07:59:41;3.20;;;2.90;;
58992;SDS011;44782;0.000;0.000;2023-08-24T08:01:57;3.30;;;3.00;;
58992;SDS011;44782;0.000;0.000;2023-08-24T08:04:12;3.50;;;3.05;;
58992;SDS011;44782;0.000;0.000;2023-08-24T08:06:28;3.55;;;3.22;;
58992;SDS011;44782;0.000;0.000;2023-08-24T08:08:44;2.92;;;2.70;;
58992;SDS011;44782;0.000;0.000;2023-08-24T08:11:02;3.50;;;3.20;;
58992;SDS011;44782;0.000;0.000;2023-08-24T08:13:18;3.60;;;3.30;;
58992;SDS011;44782;0.000;0.000;2023-08-24T08:15:34;3.13;;;2.83;;
58992;SDS011;44782;0.000;0.000;2023-08-24T08:17:51;3.55;;;3.10;;
58992;SDS011;44782;0.000;0.000;2023-08-24T08:20:07;3.20;;;2.90;;
58992;SDS011;44782;0.000;0.000;2023-08-24T08:22:23;3.33;;;3.03;;
58992;SDS011;44782;0.000;0.000;2023-08-24T08:24:40;3.53;;;3.05;;
58992;SDS011;44782;0.000;0.000;2023-08-24T08:26:56;3.67;;;2.97;;
58992;SDS011;44782;0.000;0.000;2023-08-24T08:29:11;3.45;;;3.15;;
58992;SDS011;44782;0.000;0.000;2023-08-24T08:31:27;3.20;;;2.92;;
58992;SDS011;44782;0.000;0.000;2023-08-24T08:33:43;3.08;;;2.78;;
58992;SDS011;44782;0.000;0.000;2023-08-24T08:35:58;3.67;;;3.30;;
58992;SDS011;44782;0.000;0.000;2023-08-24T08:38:14;3.22;;;2.92;;
58992;SDS011;44782;0.000;0.000;2023-08-24T08:40:30;3.90;;;3.10;;
58992;SDS011;44782;0.000;0.000;2023-08-24T08:42:46;3.63;;;2.85;;
58992;SDS011;44782;0.000;0.000;2023-08-24T08:45:01;3.17;;;2.80;;
58992;SDS011;44782;0.000;0.000;2023-08-24T08:47:20;3.30;;;3.00;;
58992;SDS011;44782;0.000;0.000;2023-08-24T08:49:39;3.38;;;3.03;;
58992;SDS011;44782;0.000;0.000;2023-08-24T08:51:58;3.42;;;2.70;;
58992;SDS011;44782;0.000;0.000;2023-08-24T08:54:14;3.97;;;2.88;;
58992;SDS011;44782;0.000;0.000;2023-08-24T08:56:29;3.15;;;2.75;;
58992;SDS011;44782;0.000;0.000;2023-08-24T08:58:45;3.20;;;2.90;;
58992;SDS011;44782;0.000;0.000;2023-08-24T09:01:02;3.22;;;2.92;;
58992;SDS011;44782;0.000;0.000;2023-08-24T09:03:19;3.00;;;2.70;;
58992;SDS011;44782;0.000;0.000;2023-08-24T09:05:36;3.80;;;2.92;;
58992;SDS011;44782;0.000;0.000;2023-08-24T09:07:53;3.45;;;3.15;;
58992;SDS011;44782;0.000;0.000;2023-08-24T09:10:10;3.10;;;2.80;;
58992;SDS011;44782;0.000;0.000;2023-08-24T09:12:26;3.00;;;2.78;;
58992;SDS011;44782;0.000;0.000;2023-08-24T09:14:46;4.85;;;2.90;;
58992;SDS011;44782;0.000;0.000;2023-08-24T09:17:02;3.78;;;2.75;;
58992;SDS011;44782;0.000;0.000;2023-08-24T09:19:18;2.97;;;2.67;;
58992;SDS011;44782;0.000;0.000;2023-08-24T09:21:36;3.10;;;2.80;;
58992;SDS011;44782;0.000;0.000;2023-08-24T09:23:54;3.17;;;2.75;;
58992;SDS011;44782;0.000;0.000;2023-08-24T09:26:11;2.85;;;2.65;;
58992;SDS011;44782;0.000;0.000;2023-08-24T09:28:26;3.08;;;2.70;;
58992;SDS011;44782;0.000;0.000;2023-08-24T09:30:42;2.60;;;2.40;;
58992;SDS011;44782;0.000;0.000;2023-08-24T09:33:01;3.08;;;2.80;;
58992;SDS011;44782;0.000;0.000;2023-08-24T09:35:18;2.70;;;2.50;;
58992;SDS011;44782;0.000;0.000;2023-08-24T09:37:38;2.85;;;2.65;;
58992;SDS011;44782;0.000;0.000;2023-08-24T09:40:00;2.83;;;2.63;;
58992;SDS011;44782;0.000;0.000;2023-08-24T09:42:24;2.72;;;2.53;;
58992;SDS011;44782;0.000;0.000;2023-08-24T09:44:43;3.05;;;2.80;;
58992;SDS011;44782;0.000;0.000;2023-08-24T09:47:02;2.85;;;2.60;;
58992;SDS011;44782;0.000;0.000;2023-08-24T09:49:26;2.67;;;2.47;;
58992;SDS011;44782;0.000;0.000;2023-08-24T09:51:44;4.07;;;2.60;;
58992;SDS011;44782;0.000;0.000;2023-08-24T09:54:01;2.75;;;2.40;;
58992;SDS011;44782;0.000;0.000;2023-08-24T09:56:24;2.80;;;2.50;;
58992;SDS011;44782;0.000;0.000;2023-08-24T09:58:44;3.10;;;2.90;;
58992;SDS011;44782;0.000;0.000;2023-08-24T10:01:01;2.70;;;2.50;;
58992;SDS011;44782;0.000;0.000;2023-08-24T10:03:19;3.08;;;2.47;;
58992;SDS011;44782;0.000;0.000;2023-08-24T10:05:42;2.80;;;2.60;;
58992;SDS011;44782;0.000;0.000;2023-08-24T10:08:01;2.88;;;2.67;;
58992;SDS011;44782;0.000;0.000;2023-08-24T10:10:19;2.72;;;2.53;;
58992;SDS011;44782;0.000;0.000;2023-08-24T10:12:38;2.55;;;2.35;;
58992;SDS011;44782;0.000;0.000;2023-08-24T10:14:59;2.70;;;2.50;;
58992;SDS011;44782;0.000;0.000;2023-08-24T10:17:18;2.60;;;2.40;;
58992;SDS011;44782;0.000;0.000;2023-08-24T10:19:34;2.80;;;2.60;;
58992;SDS011;44782;0.000;0.000;2023-08-24T10:21:51;2.50;;;2.30;;
58992;SDS011;44782;0.000;0.000;2023-08-24T10:24:12;2.70;;;2.50;;
58992;SDS011;44782;0.000;0.000;2023-08-24T10:26:29;2.75;;;2.55;;
58992;SDS011;44782;0.000;0.000;2023-08-24T10:28:47;2.70;;;2.50;;
58992;SDS011;44782;0.000;0.000;2023-08-24T10:31:04;3.03;;;2.55;;
58992;SDS011;44782;0.000;0.000;2023-08-24T10:33:21;2.30;;;2.10;;
58992;SDS011;44782;0.000;0.000;2023-08-24T10:35:38;3.20;;;2.40;;
58992;SDS011;44782;0.000;0.000;2023-08-24T10:37:55;2.47;;;2.28;;
58992;SDS011;44782;0.000;0.000;2023-08-24T10:40:14;2.40;;;2.20;;
58992;SDS011;44782;0.000;0.000;2023-08-24T10:42:46;2.40;;;2.20;;
58992;SDS011;44782;0.000;0.000;2023-08-24T10:45:01;2.67;;;2.47;;
58992;SDS011;44782;0.000;0.000;2023-08-24T10:47:18;2.33;;;2.15;;
58992;SDS011;44782;0.000;0.000;2023-08-24T10:49:34;3.10;;;2.25;;
58992;SDS011;44782;0.000;0.000;2023-08-24T10:51:50;2.20;;;2.00;;
58992;SDS011;44782;0.000;0.000;2023-08-24T10:54:05;2.70;;;2.50;;
58992;SDS011;44782;0.000;0.000;2023-08-24T10:56:22;2.63;;;2.42;;
58992;SDS011;44782;0.000;0.000;2023-08-24T10:59:10;2.40;;;2.20;;
58992;SDS011;44782;0.000;0.000;2023-08-24T11:01:27;2.47;;;2.28;;
58992;SDS011;44782;0.000;0.000;2023-08-24T11:03:50;2.25;;;2.05;;
58992;SDS011;44782;0.000;0.000;2023-08-24T11:06:19;2.40;;;2.20;;
58992;SDS011;44782;0.000;0.000;2023-08-24T11:08:46;2.60;;;2.40;;
58992;SDS011;44782;0.000;0.000;2023-08-24T11:11:02;2.55;;;2.28;;
58992;SDS011;44782;0.000;0.000;2023-08-24T11:13:18;2.40;;;2.20;;
58992;SDS011;44782;0.000;0.000;2023-08-24T11:18:39;2.25;;;2.15;;
58992;SDS011;44782;0.000;0.000;2023-08-24T11:20:45;2.00;;;1.90;;
58992;SDS011;44782;0.000;0.000;2023-08-24T11:23:01;2.53;;;2.33;;
58992;SDS011;44782;0.000;0.000;2023-08-24T11:25:18;2.30;;;2.10;;
58992;SDS011;44782;0.000;0.000;2023-08-24T11:27:34;2.53;;;2.20;;
58992;SDS011;44782;0.000;0.000;2023-08-24T11:30:00;2.30;;;2.20;;
58992;SDS011;44782;0.000;0.000;2023-08-24T11:32:18;2.33;;;2.13;;
58992;SDS011;44782;0.000;0.000;2023-08-24T11:34:34;2.20;;;2.10;;
58992;SDS011;44782;0.000;0.000;2023-08-24T11:36:51;2.15;;;1.95;;
58992;SDS011;44782;0.000;0.000;2023-08-24T11:39:06;2.40;;;2.20;;
58992;SDS011;44782;0.000;0.000;2023-08-24T11:41:29;2.40;;;2.20;;
58992;SDS011;44782;0.000;0.000;2023-08-24T11:43:45;2.60;;;2.40;;
58992;SDS011;44782;0.000;0.000;2023-08-24T11:46:02;2.85;;;2.25;;
58992;SDS011;44782;0.000;0.000;2023-08-24T11:48:19;3.28;;;2.13;;
58992;SDS011;44782;0.000;0.000;2023-08-24T11:50:39;2.58;;;2.13;;
58992;SDS011;44782;0.000;0.000;2023-08-24T11:52:54;2.85;;;2.20;;
58992;SDS011;44782;0.000;0.000;2023-08-24T11:55:10;2.28;;;2.08;;
58992;SDS011;44782;0.000;0.000;2023-08-24T11:57:26;2.38;;;2.17;;
58992;SDS011;44782;0.000;0.000;2023-08-24T11:59:43;3.03;;;2.30;;
58992;SDS011;44782;0.000;0.000;2023-08-24T12:01:59;2.33;;;2.13;;
58992;SDS011;44782;0.000;0.000;2023-08-24T12:04:15;2.50;;;2.30;;
58992;SDS011;44782;0.000;0.000;2023-08-24T12:06:31;2.47;;;2.28;;
58992;SDS011;44782;0.000;0.000;2023-08-24T12:08:47;2.38;;;2.17;;
58992;SDS011;44782;0.000;0.000;2023-08-24T12:11:03;2.42;;;2.13;;
58992;SDS011;44782;0.000;0.000;2023-08-24T12:13:25;2.42;;;2.22;;
58992;SDS011;44782;0.000;0.000;2023-08-24T12:15:47;2.15;;;2.03;;
58992;SDS011;44782;0.000;0.000;2023-08-24T12:18:09;3.35;;;2.25;;
58992;SDS011;44782;0.000;0.000;2023-08-24T12:20:25;2.00;;;1.90;;
58992;SDS011;44782;0.000;0.000;2023-08-24T12:22:41;2.45;;;2.25;;
58992;SDS011;44782;0.000;0.000;2023-08-24T12:24:57;2.45;;;2.30;;
58992;SDS011;44782;0.000;0.000;2023-08-24T12:27:22;2.38;;;2.17;;
58992;SDS011;44782;0.000;0.000;2023-08-24T12:29:44;2.63;;;2.13;;
58992;SDS011;44782;0.000;0.000;2023-08-24T12:32:00;2.47;;;2.28;;
58992;SDS011;44782;0.000;0.000;2023-08-24T12:34:16;2.30;;;2.10;;
58992;SDS011;44782;0.000;0.000;2023-08-24T12:36:32;2.42;;;2.22;;
58992;SDS011;44782;0.000;0.000;2023-08-24T12:38:50;2.10;;;1.90;;
58992;SDS011;44782;0.000;0.000;2023-08-24T12:41:06;2.00;;;1.90;;
58992;SDS011;44782;0.000;0.000;2023-08-24T12:43:22;3.25;;;2.13;;
58992;SDS011;44782;0.000;0.000;2023-08-24T12:45:38;3.55;;;2.22;;
58992;SDS011;44782;0.000;0.000;2023-08-24T12:47:54;2.45;;;2.10;;
58992;SDS011;44782;0.000;0.000;2023-08-24T12:50:10;2.13;;;1.90;;
58992;SDS011;44782;0.000;0.000;2023-08-24T12:52:26;2.35;;;2.00;;
58992;SDS011;44782;0.000;0.000;2023-08-24T12:54:41;2.20;;;2.10;;
58992;SDS011;44782;0.000;0.000;2023-08-24T12:56:57;1.92;;;1.80;;
58992;SDS011;44782;0.000;0.000;2023-08-24T12:59:13;2.92;;;2.30;;
58992;SDS011;44782;0.000;0.000;2023-08-24T13:01:28;2.30;;;2.10;;
58992;SDS011;44782;0.000;0.000;2023-08-24T13:03:44;2.17;;;2.08;;
58992;SDS011;44782;0.000;0.000;2023-08-24T13:06:00;2.30;;;2.10;;
58992;SDS011;44782;0.000;0.000;2023-08-24T13:08:15;2.00;;;1.85;;
58992;SDS011;44782;0.000;0.000;2023-08-24T13:10:31;2.28;;;2.08;;
58992;SDS011;44782;0.000;0.000;2023-08-24T13:12:47;2.30;;;2.10;;
58992;SDS011;44782;0.000;0.000;2023-08-24T13:15:03;2.50;;;2.17;;
58992;SDS011;44782;0.000;0.000;2023-08-24T13:17:18;2.25;;;2.05;;
58992;SDS011;44782;0.000;0.000;2023-08-24T13:19:34;2.00;;;1.90;;
58992;SDS011;44782;0.000;0.000;2023-08-24T13:21:50;2.40;;;2.20;;
58992;SDS011;44782;0.000;0.000;2023-08-24T13:24:06;2.30;;;2.10;;
58992;SDS011;44782;0.000;0.000;2023-08-24T13:26:22;1.98;;;1.83;;
58992;SDS011;44782;0.000;0.000;2023-08-24T13:28:40;2.10;;;1.90;;
58992;SDS011;44782;0.000;0.000;2023-08-24T13:30:56;1.85;;;1.75;;
58992;SDS011;44782;0.000;0.000;2023-08-24T13:33:11;1.92;;;1.75;;
58992;SDS011;44782;0.000;0.000;2023-08-24T13:35:27;2.15;;;2.00;;
58992;SDS011;44782;0.000;0.000;2023-08-24T13:37:43;1.95;;;1.80;;
58992;SDS011;44782;0.000;0.000;2023-08-24T13:39:58;3.92;;;1.98;;
58992;SDS011;44782;0.000;0.000;2023-08-24T13:42:14;4.68;;;2.40;;
58992;SDS011;44782;0.000;0.000;2023-08-24T13:44:30;3.03;;;2.45;;
58992;SDS011;44782;0.000;0.000;2023-08-24T13:46:46;3.83;;;2.60;;
58992;SDS011;44782;0.000;0.000;2023-08-24T13:49:01;2.42;;;2.22;;
58992;SDS011;44782;0.000;0.000;2023-08-24T13:51:17;2.78;;;2.50;;
58992;SDS011;44782;0.000;0.000;2023-08-24T13:53:33;2.65;;;2.35;;
58992;SDS011;44782;0.000;0.000;2023-08-24T13:55:48;2.67;;;2.47;;
58992;SDS011;44782;0.000;0.000;2023-08-24T13:58:04;2.85;;;2.58;;
58992;SDS011;44782;0.000;0.000;2023-08-24T14:00:20;2.80;;;2.60;;
58992;SDS011;44782;0.000;0.000;2023-08-24T14:02:38;2.75;;;2.50;;
58992;SDS011;44782;0.000;0.000;2023-08-24T14:04:54;2.92;;;2.45;;
58992;SDS011;44782;0.000;0.000;2023-08-24T14:07:09;3.03;;;2.70;;
58992;SDS011;44782;0.000;0.000;2023-08-24T14:09:25;2.53;;;2.33;;
58992;SDS011;44782;0.000;0.000;2023-08-24T14:11:40;2.42;;;2.22;;